sensor_id;sensor_type;location;lat;lon;timestamp;P1;durP1;ratioP1;P2;durP2;ratioP2
4290;SDS011;2159;50.906;7.152;2024-03-02T00:01:17;1.80;;;1.70;;
4290;SDS011;2159;50.906;7.152;2024-03-02T00:03:45;1.70;;;1.60;;
4290;SDS011;2159;50.906;7.152;2024-03-02T00:06:12;1.90;;;1.67;;
4290;SDS011;2159;50.906;7.152;2024-03-02T00:08:40;2.07;;;1.70;;
4290;SDS011;2159;50.906;7.152;2024-03-02T00:11:07;1.83;;;1.73;;
4290;SDS011;2159;50.906;7.152;2024-03-02T00:13:37;1.73;;;1.63;;
4290;SDS011;2159;50.906;7.152;2024-03-02T00:16:06;1.73;;;1.60;;
4290;SDS011;2159;50.906;7.152;2024-03-02T00:18:35;1.70;;;1.60;;
4290;SDS011;2159;50.906;7.152;2024-03-02T00:21:03;1.83;;;1.60;;
4290;SDS011;2159;50.906;7.152;2024-03-02T00:23:35;1.43;;;1.43;;
4290;SDS011;2159;50.906;7.152;2024-03-02T00:26:03;1.70;;;1.60;;
4290;SDS011;2159;50.906;7.152;2024-03-02T00:28:31;1.90;;;1.80;;
4290;SDS011;2159;50.906;7.152;2024-03-02T00:31:02;1.60;;;1.50;;
4290;SDS011;2159;50.906;7.152;2024-03-02T00:33:30;1.70;;;1.60;;
4290;SDS011;2159;50.906;7.152;2024-03-02T00:36:00;1.70;;;1.60;;
4290;SDS011;2159;50.906;7.152;2024-03-02T00:38:28;1.60;;;1.50;;
4290;SDS011;2159;50.906;7.152;2024-03-02T00:40:56;1.50;;;1.40;;
4290;SDS011;2159;50.906;7.152;2024-03-02T00:46:09;2.50;;;1.57;;
4290;SDS011;2159;50.906;7.152;2024-03-02T00:48:38;1.93;;;1.50;;
4290;SDS011;2159;50.906;7.152;2024-03-02T00:51:09;1.60;;;1.50;;
4290;SDS011;2159;50.906;7.152;2024-03-02T00:53:36;3.60;;;1.57;;
4290;SDS011;2159;50.906;7.152;2024-03-02T00:56:05;1.57;;;1.50;;
4290;SDS011;2159;50.906;7.152;2024-03-02T00:58:36;1.30;;;1.30;;
4290;SDS011;2159;50.906;7.152;2024-03-02T01:01:03;1.30;;;1.20;;
4290;SDS011;2159;50.906;7.152;2024-03-02T01:03:31;1.53;;;1.40;;
4290;SDS011;2159;50.906;7.152;2024-03-02T01:05:59;1.40;;;1.30;;
4290;SDS011;2159;50.906;7.152;2024-03-02T01:08:27;3.40;;;1.53;;
4290;SDS011;2159;50.906;7.152;2024-03-02T01:10:55;1.20;;;1.20;;
4290;SDS011;2159;50.906;7.152;2024-03-02T01:13:23;1.50;;;1.40;;
4290;SDS011;2159;50.906;7.152;2024-03-02T01:15:50;1.40;;;1.30;;
4290;SDS011;2159;50.906;7.152;2024-03-02T01:18:19;1.60;;;1.50;;
4290;SDS011;2159;50.906;7.152;2024-03-02T01:20:47;2.00;;;1.50;;
4290;SDS011;2159;50.906;7.152;2024-03-02T01:23:17;1.50;;;1.40;;
4290;SDS011;2159;50.906;7.152;2024-03-02T01:25:47;1.47;;;1.37;;
4290;SDS011;2159;50.906;7.152;2024-03-02T01:28:14;3.27;;;1.27;;
4290;SDS011;2159;50.906;7.152;2024-03-02T01:30:42;1.30;;;1.20;;
4290;SDS011;2159;50.906;7.152;2024-03-02T01:33:10;1.40;;;1.30;;
4290;SDS011;2159;50.906;7.152;2024-03-02T01:35:37;1.57;;;1.23;;
4290;SDS011;2159;50.906;7.152;2024-03-02T01:38:05;1.33;;;1.23;;
4290;SDS011;2159;50.906;7.152;2024-03-02T01:40:33;1.30;;;1.20;;
4290;SDS011;2159;50.906;7.152;2024-03-02T01:43:02;2.00;;;1.23;;
4290;SDS011;2159;50.906;7.152;2024-03-02T01:45:30;1.40;;;1.37;;
4290;SDS011;2159;50.906;7.152;2024-03-02T01:47:58;1.47;;;1.37;;
4290;SDS011;2159;50.906;7.152;2024-03-02T01:50:26;1.57;;;1.47;;
4290;SDS011;2159;50.906;7.152;2024-03-02T01:52:55;2.27;;;1.60;;
4290;SDS011;2159;50.906;7.152;2024-03-02T01:55:22;1.37;;;1.30;;
4290;SDS011;2159;50.906;7.152;2024-03-02T01:57:50;1.50;;;1.40;;
4290;SDS011;2159;50.906;7.152;2024-03-02T02:00:20;1.40;;;1.30;;
4290;SDS011;2159;50.906;7.152;2024-03-02T02:02:47;1.40;;;1.40;;
4290;SDS011;2159;50.906;7.152;2024-03-02T02:05:15;1.43;;;1.33;;
4290;SDS011;2159;50.906;7.152;2024-03-02T02:07:43;1.50;;;1.40;;
4290;SDS011;2159;50.906;7.152;2024-03-02T02:10:11;5.20;;;1.20;;
4290;SDS011;2159;50.906;7.152;2024-03-02T02:12:39;1.30;;;1.20;;
4290;SDS011;2159;50.906;7.152;2024-03-02T02:17:58;1.20;;;1.20;;
4290;SDS011;2159;50.906;7.152;2024-03-02T02:20:26;1.90;;;1.30;;
4290;SDS011;2159;50.906;7.152;2024-03-02T02:22:58;4.23;;;1.30;;
4290;SDS011;2159;50.906;7.152;2024-03-02T02:25:26;1.30;;;1.20;;
4290;SDS011;2159;50.906;7.152;2024-03-02T02:27:54;1.20;;;1.20;;
4290;SDS011;2159;50.906;7.152;2024-03-02T02:30:23;1.30;;;1.30;;
4290;SDS011;2159;50.906;7.152;2024-03-02T02:32:50;1.40;;;1.30;;
4290;SDS011;2159;50.906;7.152;2024-03-02T02:35:18;1.17;;;1.17;;
4290;SDS011;2159;50.906;7.152;2024-03-02T02:37:46;1.43;;;1.30;;
4290;SDS011;2159;50.906;7.152;2024-03-02T02:40:15;1.40;;;1.30;;
4290;SDS011;2159;50.906;7.152;2024-03-02T02:42:45;1.67;;;1.57;;
4290;SDS011;2159;50.906;7.152;2024-03-02T02:45:13;1.50;;;1.40;;
4290;SDS011;2159;50.906;7.152;2024-03-02T02:47:41;1.20;;;1.20;;
4290;SDS011;2159;50.906;7.152;2024-03-02T02:50:09;1.50;;;1.40;;
4290;SDS011;2159;50.906;7.152;2024-03-02T02:52:37;1.50;;;1.40;;
4290;SDS011;2159;50.906;7.152;2024-03-02T02:55:06;2.20;;;1.40;;
4290;SDS011;2159;50.906;7.152;2024-03-02T02:57:36;1.50;;;1.40;;
4290;SDS011;2159;50.906;7.152;2024-03-02T03:00:05;1.83;;;1.40;;
4290;SDS011;2159;50.906;7.152;2024-03-02T03:02:37;2.13;;;1.50;;
4290;SDS011;2159;50.906;7.152;2024-03-02T03:05:05;1.30;;;1.20;;
4290;SDS011;2159;50.906;7.152;2024-03-02T03:07:33;1.60;;;1.50;;
4290;SDS011;2159;50.906;7.152;2024-03-02T03:10:03;1.50;;;1.40;;
4290;SDS011;2159;50.906;7.152;2024-03-02T03:12:31;1.60;;;1.50;;
4290;SDS011;2159;50.906;7.152;2024-03-02T03:15:00;3.73;;;1.60;;
4290;SDS011;2159;50.906;7.152;2024-03-02T03:17:28;1.60;;;1.50;;
4290;SDS011;2159;50.906;7.152;2024-03-02T03:19:55;1.17;;;1.17;;
4290;SDS011;2159;50.906;7.152;2024-03-02T03:22:23;1.50;;;1.50;;
4290;SDS011;2159;50.906;7.152;2024-03-02T03:24:50;1.67;;;1.57;;
4290;SDS011;2159;50.906;7.152;2024-03-02T03:27:18;2.30;;;1.53;;
4290;SDS011;2159;50.906;7.152;2024-03-02T03:29:46;1.67;;;1.57;;
4290;SDS011;2159;50.906;7.152;2024-03-02T03:32:15;1.53;;;1.43;;
4290;SDS011;2159;50.906;7.152;2024-03-02T03:34:43;1.57;;;1.50;;
4290;SDS011;2159;50.906;7.152;2024-03-02T03:37:10;1.80;;;1.70;;
4290;SDS011;2159;50.906;7.152;2024-03-02T03:39:38;1.63;;;1.53;;
4290;SDS011;2159;50.906;7.152;2024-03-02T03:42:05;1.70;;;1.60;;
4290;SDS011;2159;50.906;7.152;2024-03-02T03:44:33;1.60;;;1.50;;
4290;SDS011;2159;50.906;7.152;2024-03-02T03:47:00;4.63;;;1.60;;
4290;SDS011;2159;50.906;7.152;2024-03-02T03:49:30;1.70;;;1.60;;
4290;SDS011;2159;50.906;7.152;2024-03-02T03:51:57;1.60;;;1.60;;
4290;SDS011;2159;50.906;7.152;2024-03-02T03:54:25;1.80;;;1.70;;
4290;SDS011;2159;50.906;7.152;2024-03-02T03:56:53;1.73;;;1.60;;
4290;SDS011;2159;50.906;7.152;2024-03-02T03:59:21;1.83;;;1.53;;
4290;SDS011;2159;50.906;7.152;2024-03-02T04:01:49;1.67;;;1.57;;
4290;SDS011;2159;50.906;7.152;2024-03-02T04:04:16;1.70;;;1.60;;
4290;SDS011;2159;50.906;7.152;2024-03-02T04:06:45;1.60;;;1.50;;
4290;SDS011;2159;50.906;7.152;2024-03-02T04:09:13;1.40;;;1.40;;
4290;SDS011;2159;50.906;7.152;2024-03-02T04:11:40;1.47;;;1.40;;
4290;SDS011;2159;50.906;7.152;2024-03-02T04:14:08;1.50;;;1.40;;
4290;SDS011;2159;50.906;7.152;2024-03-02T04:16:36;3.50;;;1.70;;
4290;SDS011;2159;50.906;7.152;2024-03-02T04:19:03;1.90;;;1.80;;
4290;SDS011;2159;50.906;7.152;2024-03-02T04:21:31;2.70;;;1.87;;
4290;SDS011;2159;50.906;7.152;2024-03-02T04:24:00;1.90;;;1.80;;
4290;SDS011;2159;50.906;7.152;2024-03-02T04:26:27;2.40;;;1.70;;
4290;SDS011;2159;50.906;7.152;2024-03-02T04:28:55;2.10;;;1.80;;
4290;SDS011;2159;50.906;7.152;2024-03-02T04:31:22;1.77;;;1.67;;
4290;SDS011;2159;50.906;7.152;2024-03-02T04:33:50;5.43;;;2.37;;
4290;SDS011;2159;50.906;7.152;2024-03-02T04:36:17;1.80;;;1.70;;
4290;SDS011;2159;50.906;7.152;2024-03-02T04:38:45;1.90;;;1.80;;
4290;SDS011;2159;50.906;7.152;2024-03-02T04:41:14;1.93;;;1.83;;
4290;SDS011;2159;50.906;7.152;2024-03-02T04:43:41;1.77;;;1.67;;
4290;SDS011;2159;50.906;7.152;2024-03-02T04:46:08;2.13;;;1.80;;
4290;SDS011;2159;50.906;7.152;2024-03-02T04:48:37;2.03;;;1.87;;
4290;SDS011;2159;50.906;7.152;2024-03-02T04:51:05;2.00;;;1.80;;
4290;SDS011;2159;50.906;7.152;2024-03-02T04:53:32;2.33;;;2.00;;
4290;SDS011;2159;50.906;7.152;2024-03-02T04:56:00;2.13;;;1.80;;
4290;SDS011;2159;50.906;7.152;2024-03-02T04:58:46;6.33;;;1.83;;
4290;SDS011;2159;50.906;7.152;2024-03-02T05:01:14;1.70;;;1.60;;
4290;SDS011;2159;50.906;7.152;2024-03-02T05:03:42;1.83;;;1.73;;
4290;SDS011;2159;50.906;7.152;2024-03-02T05:06:11;1.90;;;1.80;;
4290;SDS011;2159;50.906;7.152;2024-03-02T05:08:39;2.00;;;1.90;;
4290;SDS011;2159;50.906;7.152;2024-03-02T05:11:06;2.07;;;1.87;;
4290;SDS011;2159;50.906;7.152;2024-03-02T05:13:52;2.00;;;1.80;;
4290;SDS011;2159;50.906;7.152;2024-03-02T05:16:20;2.70;;;1.87;;
4290;SDS011;2159;50.906;7.152;2024-03-02T05:18:48;3.70;;;1.87;;
4290;SDS011;2159;50.906;7.152;2024-03-02T05:21:16;2.43;;;2.10;;
4290;SDS011;2159;50.906;7.152;2024-03-02T05:23:44;1.80;;;1.70;;
4290;SDS011;2159;50.906;7.152;2024-03-02T05:26:11;2.03;;;1.93;;
4290;SDS011;2159;50.906;7.152;2024-03-02T05:28:39;2.17;;;2.07;;
4290;SDS011;2159;50.906;7.152;2024-03-02T05:31:09;2.40;;;2.20;;
4290;SDS011;2159;50.906;7.152;2024-03-02T05:33:37;2.10;;;1.90;;
4290;SDS011;2159;50.906;7.152;2024-03-02T05:36:05;2.90;;;2.70;;
4290;SDS011;2159;50.906;7.152;2024-03-02T05:38:34;4.73;;;3.53;;
4290;SDS011;2159;50.906;7.152;2024-03-02T05:41:02;5.43;;;4.13;;
4290;SDS011;2159;50.906;7.152;2024-03-02T05:43:29;4.50;;;3.43;;
4290;SDS011;2159;50.906;7.152;2024-03-02T05:45:56;2.70;;;2.50;;
4290;SDS011;2159;50.906;7.152;2024-03-02T05:48:25;2.23;;;2.07;;
4290;SDS011;2159;50.906;7.152;2024-03-02T05:50:53;3.23;;;2.23;;
4290;SDS011;2159;50.906;7.152;2024-03-02T05:53:20;2.63;;;2.40;;
4290;SDS011;2159;50.906;7.152;2024-03-02T05:55:48;1.83;;;1.73;;
4290;SDS011;2159;50.906;7.152;2024-03-02T05:58:19;2.30;;;2.10;;
4290;SDS011;2159;50.906;7.152;2024-03-02T06:00:58;1.93;;;1.83;;
4290;SDS011;2159;50.906;7.152;2024-03-02T06:03:27;2.13;;;1.90;;
4290;SDS011;2159;50.906;7.152;2024-03-02T06:05:55;2.50;;;2.07;;
4290;SDS011;2159;50.906;7.152;2024-03-02T06:08:23;2.00;;;1.90;;
4290;SDS011;2159;50.906;7.152;2024-03-02T06:10:50;2.97;;;2.17;;
4290;SDS011;2159;50.906;7.152;2024-03-02T06:13:18;2.90;;;2.57;;
4290;SDS011;2159;50.906;7.152;2024-03-02T06:15:45;2.53;;;2.33;;
4290;SDS011;2159;50.906;7.152;2024-03-02T06:18:13;2.90;;;2.50;;
4290;SDS011;2159;50.906;7.152;2024-03-02T06:20:41;2.50;;;2.30;;
4290;SDS011;2159;50.906;7.152;2024-03-02T06:23:09;3.53;;;2.27;;
4290;SDS011;2159;50.906;7.152;2024-03-02T06:25:37;3.13;;;2.43;;
4290;SDS011;2159;50.906;7.152;2024-03-02T06:28:04;2.50;;;2.30;;
4290;SDS011;2159;50.906;7.152;2024-03-02T06:30:32;2.20;;;2.10;;
4290;SDS011;2159;50.906;7.152;2024-03-02T06:32:59;2.67;;;2.40;;
4290;SDS011;2159;50.906;7.152;2024-03-02T06:35:27;2.47;;;2.27;;
4290;SDS011;2159;50.906;7.152;2024-03-02T06:37:55;2.50;;;2.33;;
4290;SDS011;2159;50.906;7.152;2024-03-02T06:40:23;2.67;;;2.47;;
4290;SDS011;2159;50.906;7.152;2024-03-02T06:42:51;2.93;;;2.37;;
4290;SDS011;2159;50.906;7.152;2024-03-02T06:45:18;2.60;;;2.40;;
4290;SDS011;2159;50.906;7.152;2024-03-02T06:47:46;2.80;;;2.60;;
4290;SDS011;2159;50.906;7.152;2024-03-02T06:50:13;2.67;;;2.47;;
4290;SDS011;2159;50.906;7.152;2024-03-02T06:52:41;2.77;;;2.57;;
4290;SDS011;2159;50.906;7.152;2024-03-02T06:55:09;2.33;;;2.13;;
4290;SDS011;2159;50.906;7.152;2024-03-02T06:57:37;2.80;;;2.10;;
4290;SDS011;2159;50.906;7.152;2024-03-02T07:00:05;2.40;;;2.20;;
4290;SDS011;2159;50.906;7.152;2024-03-02T07:02:35;2.23;;;2.13;;
4290;SDS011;2159;50.906;7.152;2024-03-02T07:05:03;3.20;;;2.60;;
4290;SDS011;2159;50.906;7.152;2024-03-02T07:07:31;6.63;;;2.97;;
4290;SDS011;2159;50.906;7.152;2024-03-02T07:09:58;2.43;;;2.33;;
4290;SDS011;2159;50.906;7.152;2024-03-02T07:12:27;2.50;;;2.30;;
4290;SDS011;2159;50.906;7.152;2024-03-02T07:14:55;3.00;;;2.30;;
4290;SDS011;2159;50.906;7.152;2024-03-02T07:17:37;4.00;;;2.40;;
4290;SDS011;2159;50.906;7.152;2024-03-02T07:20:04;2.40;;;2.20;;
4290;SDS011;2159;50.906;7.152;2024-03-02T07:22:32;3.73;;;2.57;;
4290;SDS011;2159;50.906;7.152;2024-03-02T07:25:00;3.20;;;2.53;;
4290;SDS011;2159;50.906;7.152;2024-03-02T07:27:31;2.70;;;2.50;;
4290;SDS011;2159;50.906;7.152;2024-03-02T07:30:00;2.90;;;2.63;;
4290;SDS011;2159;50.906;7.152;2024-03-02T07:32:27;3.47;;;2.40;;
4290;SDS011;2159;50.906;7.152;2024-03-02T07:34:55;4.97;;;2.60;;
4290;SDS011;2159;50.906;7.152;2024-03-02T07:37:22;2.40;;;2.20;;
4290;SDS011;2159;50.906;7.152;2024-03-02T07:39:50;3.70;;;2.30;;
4290;SDS011;2159;50.906;7.152;2024-03-02T07:42:17;2.80;;;2.43;;
4290;SDS011;2159;50.906;7.152;2024-03-02T07:44:47;2.13;;;2.03;;
4290;SDS011;2159;50.906;7.152;2024-03-02T07:47:14;3.20;;;2.07;;
4290;SDS011;2159;50.906;7.152;2024-03-02T07:49:42;3.07;;;2.20;;
4290;SDS011;2159;50.906;7.152;2024-03-02T07:52:10;2.70;;;2.50;;
4290;SDS011;2159;50.906;7.152;2024-03-02T07:54:37;2.40;;;2.17;;
4290;SDS011;2159;50.906;7.152;2024-03-02T07:57:05;2.77;;;2.10;;
4290;SDS011;2159;50.906;7.152;2024-03-02T07:59:32;3.20;;;2.40;;
4290;SDS011;2159;50.906;7.152;2024-03-02T08:02:01;3.10;;;2.80;;
4290;SDS011;2159;50.906;7.152;2024-03-02T08:04:29;2.50;;;2.30;;
4290;SDS011;2159;50.906;7.152;2024-03-02T08:06:56;3.80;;;2.67;;
4290;SDS011;2159;50.906;7.152;2024-03-02T08:09:24;4.70;;;2.13;;
4290;SDS011;2159;50.906;7.152;2024-03-02T08:11:52;2.70;;;2.50;;
4290;SDS011;2159;50.906;7.152;2024-03-02T08:14:19;2.40;;;2.20;;
4290;SDS011;2159;50.906;7.152;2024-03-02T08:16:47;2.57;;;2.27;;
4290;SDS011;2159;50.906;7.152;2024-03-02T08:19:16;2.70;;;2.50;;
4290;SDS011;2159;50.906;7.152;2024-03-02T08:21:43;2.43;;;2.27;;
4290;SDS011;2159;50.906;7.152;2024-03-02T08:24:11;2.70;;;2.00;;
4290;SDS011;2159;50.906;7.152;2024-03-02T08:26:39;2.20;;;2.00;;
4290;SDS011;2159;50.906;7.152;2024-03-02T08:29:06;3.80;;;2.60;;
4290;SDS011;2159;50.906;7.152;2024-03-02T08:31:34;2.20;;;2.00;;
4290;SDS011;2159;50.906;7.152;2024-03-02T08:34:04;1.77;;;1.67;;
4290;SDS011;2159;50.906;7.152;2024-03-02T08:36:33;2.23;;;2.03;;
4290;SDS011;2159;50.906;7.152;2024-03-02T08:39:02;2.43;;;2.07;;
4290;SDS011;2159;50.906;7.152;2024-03-02T08:41:41;2.23;;;1.90;;
4290;SDS011;2159;50.906;7.152;2024-03-02T08:44:09;1.97;;;1.83;;
4290;SDS011;2159;50.906;7.152;2024-03-02T08:46:36;1.80;;;1.70;;
4290;SDS011;2159;50.906;7.152;2024-03-02T08:49:05;2.07;;;1.90;;
4290;SDS011;2159;50.906;7.152;2024-03-02T08:51:34;1.70;;;1.60;;
4290;SDS011;2159;50.906;7.152;2024-03-02T08:54:01;2.10;;;2.00;;
4290;SDS011;2159;50.906;7.152;2024-03-02T08:56:30;2.27;;;2.13;;
4290;SDS011;2159;50.906;7.152;2024-03-02T08:58:58;3.10;;;2.77;;
4290;SDS011;2159;50.906;7.152;2024-03-02T09:01:25;2.07;;;1.90;;
4290;SDS011;2159;50.906;7.152;2024-03-02T09:03:53;1.80;;;1.70;;
4290;SDS011;2159;50.906;7.152;2024-03-02T09:06:21;1.83;;;1.73;;
4290;SDS011;2159;50.906;7.152;2024-03-02T09:08:50;1.87;;;1.77;;
4290;SDS011;2159;50.906;7.152;2024-03-02T09:11:18;1.93;;;1.83;;
4290;SDS011;2159;50.906;7.152;2024-03-02T09:13:45;1.47;;;1.37;;
4290;SDS011;2159;50.906;7.152;2024-03-02T09:16:13;2.33;;;1.93;;
4290;SDS011;2159;50.906;7.152;2024-03-02T09:18:40;1.60;;;1.50;;
4290;SDS011;2159;50.906;7.152;2024-03-02T09:21:08;2.10;;;1.80;;
4290;SDS011;2159;50.906;7.152;2024-03-02T09:23:36;1.77;;;1.67;;
4290;SDS011;2159;50.906;7.152;2024-03-02T09:26:06;2.93;;;1.60;;
4290;SDS011;2159;50.906;7.152;2024-03-02T09:28:33;4.00;;;2.00;;
4290;SDS011;2159;50.906;7.152;2024-03-02T09:31:01;2.30;;;1.77;;
4290;SDS011;2159;50.906;7.152;2024-03-02T09:33:28;1.50;;;1.40;;
4290;SDS011;2159;50.906;7.152;2024-03-02T09:35:56;2.80;;;1.70;;
4290;SDS011;2159;50.906;7.152;2024-03-02T09:38:23;1.70;;;1.60;;
4290;SDS011;2159;50.906;7.152;2024-03-02T09:40:51;1.53;;;1.43;;
4290;SDS011;2159;50.906;7.152;2024-03-02T09:43:20;3.43;;;1.43;;
4290;SDS011;2159;50.906;7.152;2024-03-02T09:45:47;1.90;;;1.80;;
4290;SDS011;2159;50.906;7.152;2024-03-02T09:48:15;1.77;;;1.67;;
4290;SDS011;2159;50.906;7.152;2024-03-02T09:50:44;1.83;;;1.67;;
4290;SDS011;2159;50.906;7.152;2024-03-02T09:53:12;2.33;;;1.70;;
4290;SDS011;2159;50.906;7.152;2024-03-02T09:55:41;3.63;;;2.23;;
4290;SDS011;2159;50.906;7.152;2024-03-02T09:58:10;1.90;;;1.77;;
4290;SDS011;2159;50.906;7.152;2024-03-02T10:00:39;3.00;;;1.83;;
4290;SDS011;2159;50.906;7.152;2024-03-02T10:03:11;2.00;;;1.80;;
4290;SDS011;2159;50.906;7.152;2024-03-02T10:05:38;1.90;;;1.77;;
4290;SDS011;2159;50.906;7.152;2024-03-02T10:08:06;1.60;;;1.50;;
4290;SDS011;2159;50.906;7.152;2024-03-02T10:10:34;1.93;;;1.73;;
4290;SDS011;2159;50.906;7.152;2024-03-02T10:13:03;2.30;;;1.57;;
4290;SDS011;2159;50.906;7.152;2024-03-02T10:15:31;1.63;;;1.50;;
4290;SDS011;2159;50.906;7.152;2024-03-02T10:18:00;2.00;;;1.90;;
4290;SDS011;2159;50.906;7.152;2024-03-02T10:20:27;2.00;;;1.90;;
4290;SDS011;2159;50.906;7.152;2024-03-02T10:22:56;1.80;;;1.50;;
4290;SDS011;2159;50.906;7.152;2024-03-02T10:25:36;4.57;;;2.13;;
4290;SDS011;2159;50.906;7.152;2024-03-02T10:28:16;1.50;;;1.40;;
4290;SDS011;2159;50.906;7.152;2024-03-02T10:30:47;4.07;;;1.73;;
4290;SDS011;2159;50.906;7.152;2024-03-02T10:33:17;1.77;;;1.67;;
4290;SDS011;2159;50.906;7.152;2024-03-02T10:35:44;3.27;;;1.60;;
4290;SDS011;2159;50.906;7.152;2024-03-02T10:38:12;1.60;;;1.50;;
4290;SDS011;2159;50.906;7.152;2024-03-02T10:40:39;2.23;;;1.30;;
4290;SDS011;2159;50.906;7.152;2024-03-02T10:43:07;1.63;;;1.53;;
4290;SDS011;2159;50.906;7.152;2024-03-02T10:45:34;3.43;;;1.50;;
4290;SDS011;2159;50.906;7.152;2024-03-02T10:48:02;1.80;;;1.70;;
4290;SDS011;2159;50.906;7.152;2024-03-02T10:50:33;1.93;;;1.53;;
4290;SDS011;2159;50.906;7.152;2024-03-02T10:53:00;2.03;;;1.67;;
4290;SDS011;2159;50.906;7.152;2024-03-02T10:55:28;1.70;;;1.60;;
4290;SDS011;2159;50.906;7.152;2024-03-02T10:57:55;1.70;;;1.60;;
4290;SDS011;2159;50.906;7.152;2024-03-02T11:00:25;1.60;;;1.50;;
4290;SDS011;2159;50.906;7.152;2024-03-02T11:02:56;1.70;;;1.60;;
4290;SDS011;2159;50.906;7.152;2024-03-02T11:05:26;3.43;;;1.30;;
4290;SDS011;2159;50.906;7.152;2024-03-02T11:08:00;1.67;;;1.57;;
4290;SDS011;2159;50.906;7.152;2024-03-02T11:10:31;1.47;;;1.37;;
4290;SDS011;2159;50.906;7.152;2024-03-02T11:13:02;1.30;;;1.17;;
4290;SDS011;2159;50.906;7.152;2024-03-02T11:15:31;1.43;;;1.33;;
4290;SDS011;2159;50.906;7.152;2024-03-02T11:17:59;1.10;;;1.10;;
4290;SDS011;2159;50.906;7.152;2024-03-02T11:20:26;1.20;;;1.10;;
4290;SDS011;2159;50.906;7.152;2024-03-02T11:22:54;1.13;;;1.13;;
4290;SDS011;2159;50.906;7.152;2024-03-02T11:25:24;1.20;;;1.13;;
4290;SDS011;2159;50.906;7.152;2024-03-02T11:28:04;1.67;;;1.20;;
4290;SDS011;2159;50.906;7.152;2024-03-02T11:30:51;1.40;;;1.30;;
4290;SDS011;2159;50.906;7.152;2024-03-02T11:33:23;1.33;;;1.27;;
4290;SDS011;2159;50.906;7.152;2024-03-02T11:35:52;1.33;;;1.23;;
4290;SDS011;2159;50.906;7.152;2024-03-02T11:38:19;5.40;;;1.80;;
4290;SDS011;2159;50.906;7.152;2024-03-02T11:40:48;2.20;;;1.20;;
4290;SDS011;2159;50.906;7.152;2024-03-02T11:43:16;4.70;;;2.63;;
4290;SDS011;2159;50.906;7.152;2024-03-02T11:45:43;7.50;;;1.77;;
4290;SDS011;2159;50.906;7.152;2024-03-02T11:48:12;1.40;;;1.30;;
4290;SDS011;2159;50.906;7.152;2024-03-02T11:50:41;1.50;;;1.40;;
4290;SDS011;2159;50.906;7.152;2024-03-02T11:53:10;1.50;;;1.40;;
4290;SDS011;2159;50.906;7.152;2024-03-02T11:55:39;1.73;;;1.50;;
4290;SDS011;2159;50.906;7.152;2024-03-02T11:58:08;1.40;;;1.30;;
4290;SDS011;2159;50.906;7.152;2024-03-02T12:00:36;2.63;;;1.60;;
4290;SDS011;2159;50.906;7.152;2024-03-02T12:03:04;1.77;;;1.50;;
4290;SDS011;2159;50.906;7.152;2024-03-02T12:05:34;1.73;;;1.63;;
4290;SDS011;2159;50.906;7.152;2024-03-02T12:08:03;1.53;;;1.43;;
4290;SDS011;2159;50.906;7.152;2024-03-02T12:10:31;2.13;;;1.10;;
4290;SDS011;2159;50.906;7.152;2024-03-02T12:12:59;1.60;;;1.53;;
4290;SDS011;2159;50.906;7.152;2024-03-02T12:15:28;1.60;;;1.50;;
4290;SDS011;2159;50.906;7.152;2024-03-02T12:17:57;2.37;;;1.37;;
4290;SDS011;2159;50.906;7.152;2024-03-02T12:20:25;1.40;;;1.30;;
4290;SDS011;2159;50.906;7.152;2024-03-02T12:22:54;1.40;;;1.30;;
4290;SDS011;2159;50.906;7.152;2024-03-02T12:25:22;1.40;;;1.30;;
4290;SDS011;2159;50.906;7.152;2024-03-02T12:27:50;2.73;;;1.40;;
4290;SDS011;2159;50.906;7.152;2024-03-02T12:30:18;1.53;;;1.20;;
4290;SDS011;2159;50.906;7.152;2024-03-02T12:32:47;1.30;;;1.10;;
4290;SDS011;2159;50.906;7.152;2024-03-02T12:35:15;1.40;;;1.30;;
4290;SDS011;2159;50.906;7.152;2024-03-02T12:37:43;1.30;;;1.20;;
4290;SDS011;2159;50.906;7.152;2024-03-02T12:40:12;2.33;;;1.30;;
4290;SDS011;2159;50.906;7.152;2024-03-02T12:42:40;1.30;;;1.20;;
4290;SDS011;2159;50.906;7.152;2024-03-02T12:45:08;1.40;;;1.30;;
4290;SDS011;2159;50.906;7.152;2024-03-02T12:47:36;1.37;;;1.30;;
4290;SDS011;2159;50.906;7.152;2024-03-02T12:50:05;1.60;;;1.40;;
4290;SDS011;2159;50.906;7.152;2024-03-02T12:52:33;3.30;;;1.30;;
4290;SDS011;2159;50.906;7.152;2024-03-02T12:55:03;1.40;;;1.30;;
4290;SDS011;2159;50.906;7.152;2024-03-02T12:57:32;2.67;;;1.40;;
4290;SDS011;2159;50.906;7.152;2024-03-02T13:00:01;1.40;;;1.30;;
4290;SDS011;2159;50.906;7.152;2024-03-02T13:02:31;1.13;;;1.13;;
4290;SDS011;2159;50.906;7.152;2024-03-02T13:05:00;1.23;;;1.13;;
4290;SDS011;2159;50.906;7.152;2024-03-02T13:07:29;1.40;;;1.30;;
4290;SDS011;2159;50.906;7.152;2024-03-02T13:09:56;1.10;;;1.10;;
4290;SDS011;2159;50.906;7.152;2024-03-02T13:12:24;3.23;;;1.20;;
4290;SDS011;2159;50.906;7.152;2024-03-02T13:14:52;1.80;;;1.23;;
4290;SDS011;2159;50.906;7.152;2024-03-02T13:17:19;1.63;;;1.10;;
4290;SDS011;2159;50.906;7.152;2024-03-02T13:19:53;4.73;;;1.10;;
4290;SDS011;2159;50.906;7.152;2024-03-02T13:22:20;1.27;;;1.17;;
4290;SDS011;2159;50.906;7.152;2024-03-02T13:24:50;1.10;;;1.10;;
4290;SDS011;2159;50.906;7.152;2024-03-02T13:27:17;1.17;;;1.07;;
4290;SDS011;2159;50.906;7.152;2024-03-02T13:29:46;1.67;;;1.30;;
4290;SDS011;2159;50.906;7.152;2024-03-02T13:32:14;1.40;;;1.30;;
4290;SDS011;2159;50.906;7.152;2024-03-02T13:34:42;1.63;;;1.47;;
4290;SDS011;2159;50.906;7.152;2024-03-02T13:37:10;1.20;;;1.10;;
4290;SDS011;2159;50.906;7.152;2024-03-02T13:39:37;1.83;;;1.73;;
4290;SDS011;2159;50.906;7.152;2024-03-02T13:42:10;1.33;;;1.30;;
4290;SDS011;2159;50.906;7.152;2024-03-02T13:44:39;1.20;;;1.20;;
4290;SDS011;2159;50.906;7.152;2024-03-02T13:47:08;1.10;;;1.10;;
4290;SDS011;2159;50.906;7.152;2024-03-02T13:49:35;1.27;;;1.20;;
4290;SDS011;2159;50.906;7.152;2024-03-02T13:52:05;1.23;;;1.23;;
4290;SDS011;2159;50.906;7.152;2024-03-02T13:54:37;1.20;;;1.10;;
4290;SDS011;2159;50.906;7.152;2024-03-02T13:57:05;1.10;;;1.00;;
4290;SDS011;2159;50.906;7.152;2024-03-02T13:59:34;2.63;;;1.27;;
4290;SDS011;2159;50.906;7.152;2024-03-02T14:02:02;1.40;;;1.30;;
4290;SDS011;2159;50.906;7.152;2024-03-02T14:04:31;1.90;;;1.30;;
4290;SDS011;2159;50.906;7.152;2024-03-02T14:06:59;1.17;;;1.13;;
4290;SDS011;2159;50.906;7.152;2024-03-02T14:09:27;1.60;;;1.50;;
4290;SDS011;2159;50.906;7.152;2024-03-02T14:11:55;1.30;;;1.20;;
4290;SDS011;2159;50.906;7.152;2024-03-02T14:14:23;1.40;;;1.30;;
4290;SDS011;2159;50.906;7.152;2024-03-02T14:16:52;1.90;;;1.20;;
4290;SDS011;2159;50.906;7.152;2024-03-02T14:19:19;1.20;;;1.00;;
4290;SDS011;2159;50.906;7.152;2024-03-02T14:21:47;1.10;;;1.00;;
4290;SDS011;2159;50.906;7.152;2024-03-02T14:24:15;1.20;;;1.20;;
4290;SDS011;2159;50.906;7.152;2024-03-02T14:26:42;1.10;;;1.00;;
4290;SDS011;2159;50.906;7.152;2024-03-02T14:29:09;1.30;;;1.20;;
4290;SDS011;2159;50.906;7.152;2024-03-02T14:31:37;1.13;;;1.00;;
4290;SDS011;2159;50.906;7.152;2024-03-02T14:34:07;1.20;;;1.20;;
4290;SDS011;2159;50.906;7.152;2024-03-02T14:36:35;1.20;;;1.10;;
4290;SDS011;2159;50.906;7.152;2024-03-02T14:39:02;2.73;;;2.10;;
4290;SDS011;2159;50.906;7.152;2024-03-02T14:41:30;1.20;;;1.13;;
4290;SDS011;2159;50.906;7.152;2024-03-02T14:43:58;3.93;;;1.13;;
4290;SDS011;2159;50.906;7.152;2024-03-02T14:46:26;1.80;;;1.70;;
4290;SDS011;2159;50.906;7.152;2024-03-02T14:48:53;1.03;;;0.93;;
4290;SDS011;2159;50.906;7.152;2024-03-02T14:51:22;1.43;;;1.33;;
4290;SDS011;2159;50.906;7.152;2024-03-02T14:53:50;2.40;;;1.50;;
4290;SDS011;2159;50.906;7.152;2024-03-02T14:56:18;1.10;;;1.00;;
4290;SDS011;2159;50.906;7.152;2024-03-02T14:58:45;1.13;;;1.10;;
4290;SDS011;2159;50.906;7.152;2024-03-02T15:01:13;1.00;;;1.00;;
4290;SDS011;2159;50.906;7.152;2024-03-02T15:03:40;1.53;;;1.37;;
4290;SDS011;2159;50.906;7.152;2024-03-02T15:06:08;1.60;;;1.50;;
4290;SDS011;2159;50.906;7.152;2024-03-02T15:08:37;1.23;;;1.23;;
4290;SDS011;2159;50.906;7.152;2024-03-02T15:11:07;2.20;;;1.80;;
4290;SDS011;2159;50.906;7.152;2024-03-02T15:13:35;2.67;;;2.20;;
4290;SDS011;2159;50.906;7.152;2024-03-02T15:16:03;1.63;;;1.53;;
4290;SDS011;2159;50.906;7.152;2024-03-02T15:18:30;2.40;;;2.20;;
4290;SDS011;2159;50.906;7.152;2024-03-02T15:20:58;1.27;;;1.27;;
4290;SDS011;2159;50.906;7.152;2024-03-02T15:23:25;1.50;;;1.40;;
4290;SDS011;2159;50.906;7.152;2024-03-02T15:25:57;1.53;;;1.43;;
4290;SDS011;2159;50.906;7.152;2024-03-02T15:28:25;1.60;;;1.50;;